createdAt,value
2018-03-18T00:01:52.257Z,1.00
2018-03-18T00:04:21.285Z,0.90
2018-03-18T00:06:49.552Z,0.80
2018-03-18T00:09:17.858Z,0.80
2018-03-18T00:11:47.016Z,0.90
2018-03-18T00:14:15.199Z,0.80
2018-03-18T00:16:44.324Z,0.60
2018-03-18T00:19:12.607Z,0.80
2018-03-18T00:21:40.886Z,0.70
2018-03-18T00:24:09.108Z,0.80
2018-03-18T00:26:37.443Z,1.00
2018-03-18T00:29:05.673Z,1.00
2018-03-18T00:31:34.101Z,0.70
2018-03-18T00:34:02.342Z,0.70
2018-03-18T00:36:30.661Z,0.70
2018-03-18T00:38:58.921Z,1.00
2018-03-18T00:41:27.176Z,0.80
2018-03-18T00:43:56.201Z,0.90
2018-03-18T00:46:24.483Z,0.90
2018-03-18T00:48:52.734Z,0.90
2018-03-18T00:51:33.482Z,0.90
2018-03-18T00:54:02.680Z,0.80
2018-03-18T00:56:30.921Z,0.60
2018-03-18T00:58:59.235Z,0.60
2018-03-18T01:01:28.209Z,0.70
2018-03-18T01:03:56.502Z,0.80
2018-03-18T01:06:24.803Z,0.80
2018-03-18T01:08:53.808Z,0.60
2018-03-18T01:11:22.870Z,0.60
2018-03-18T01:13:51.353Z,0.60
2018-03-18T01:16:19.658Z,0.80
2018-03-18T01:18:47.940Z,0.60
2018-03-18T01:21:16.181Z,0.70
2018-03-18T01:23:45.192Z,0.70
2018-03-18T01:26:13.553Z,0.70
2018-03-18T01:28:41.794Z,0.70
2018-03-18T01:31:10.096Z,0.80
2018-03-18T01:33:38.343Z,0.60
2018-03-18T01:36:06.565Z,0.60
2018-03-18T01:38:34.896Z,0.60
2018-03-18T01:41:03.167Z,0.40
2018-03-18T01:43:32.113Z,0.50
2018-03-18T01:46:00.389Z,0.70
2018-03-18T01:48:28.621Z,0.70
2018-03-18T01:50:57.129Z,0.80
2018-03-18T01:53:25.390Z,0.80
2018-03-18T01:55:53.870Z,0.60
2018-03-18T01:58:22.115Z,0.50
2018-03-18T02:00:50.988Z,0.60
2018-03-18T02:03:19.282Z,0.60
2018-03-18T02:05:47.513Z,0.50
2018-03-18T02:08:15.749Z,0.50
2018-03-18T02:10:44.046Z,0.60
2018-03-18T02:13:12.498Z,0.50
2018-03-18T02:15:40.728Z,0.60
2018-03-18T02:18:09.005Z,0.60
2018-03-18T02:20:38.273Z,0.60
2018-03-18T02:23:06.491Z,0.60
2018-03-18T02:25:34.951Z,0.60
2018-03-18T02:28:03.153Z,0.60
2018-03-18T02:30:31.506Z,0.40
2018-03-18T02:32:59.751Z,0.50
2018-03-18T02:35:28.909Z,0.60
2018-03-18T02:37:57.362Z,0.60
2018-03-18T02:40:25.798Z,0.50
2018-03-18T02:42:55.044Z,0.50
2018-03-18T02:45:24.038Z,0.60
2018-03-18T02:47:52.293Z,0.60
2018-03-18T02:50:20.610Z,0.60
2018-03-18T02:52:51.057Z,0.60
2018-03-18T02:55:19.300Z,0.40
2018-03-18T02:57:48.327Z,0.40
2018-03-18T03:00:16.603Z,0.60
2018-03-18T03:02:45.807Z,0.60
2018-03-18T03:05:14.056Z,0.40
2018-03-18T03:07:42.318Z,0.60
2018-03-18T03:10:11.340Z,0.60
2018-03-18T03:12:39.599Z,0.50
2018-03-18T03:15:08.261Z,0.60
2018-03-18T03:17:36.490Z,0.40
2018-03-18T03:20:04.711Z,0.60
2018-03-18T03:22:33.789Z,0.40
2018-03-18T03:25:02.036Z,0.40
2018-03-18T03:27:30.287Z,0.40
2018-03-18T03:29:58.555Z,0.40
2018-03-18T03:32:26.829Z,0.50
2018-03-18T03:34:55.074Z,0.50
2018-03-18T03:37:23.353Z,0.30
2018-03-18T03:39:51.593Z,0.40
2018-03-18T03:42:19.829Z,0.40
2018-03-18T03:44:48.952Z,0.40
2018-03-18T03:47:17.196Z,0.40
2018-03-18T03:49:46.202Z,0.20
2018-03-18T03:52:14.454Z,0.40
2018-03-18T03:54:43.557Z,0.40
2018-03-18T03:57:11.802Z,0.50
2018-03-18T03:59:40.044Z,0.40
2018-03-18T04:02:08.281Z,0.60
2018-03-18T04:04:37.300Z,0.40
2018-03-18T04:07:05.548Z,0.40
2018-03-18T04:09:33.843Z,0.50
2018-03-18T04:12:02.117Z,0.70
2018-03-18T04:14:30.494Z,0.40
2018-03-18T04:16:59.515Z,0.40
2018-03-18T04:19:27.763Z,0.60
2018-03-18T04:21:56.185Z,0.30
2018-03-18T04:24:24.422Z,0.50
2018-03-18T04:26:53.599Z,0.20
2018-03-18T04:29:21.875Z,0.20
2018-03-18T04:31:50.114Z,0.50
2018-03-18T04:34:18.357Z,0.60
2018-03-18T04:36:47.299Z,0.40
2018-03-18T04:39:17.115Z,0.20
2018-03-18T04:41:45.356Z,0.40
2018-03-18T04:44:13.793Z,0.20
2018-03-18T04:46:42.133Z,0.20
2018-03-18T04:49:10.398Z,0.40
2018-03-18T04:51:38.625Z,0.40
2018-03-18T04:54:08.019Z,0.40
2018-03-18T04:56:37.081Z,0.40
2018-03-18T04:59:05.391Z,0.40
2018-03-18T05:01:33.616Z,0.30
2018-03-18T05:04:01.864Z,0.40
2018-03-18T05:06:30.249Z,0.40
2018-03-18T05:08:58.701Z,0.30
2018-03-18T05:11:26.919Z,0.60
2018-03-18T05:13:55.148Z,0.40
2018-03-18T05:16:24.352Z,0.20
2018-03-18T05:18:52.592Z,0.60
2018-03-18T05:21:20.825Z,0.60
2018-03-18T05:23:49.058Z,0.50
2018-03-18T05:26:18.111Z,0.40
2018-03-18T05:28:46.334Z,0.40
2018-03-18T05:31:16.097Z,0.40
2018-03-18T05:33:44.337Z,0.40
2018-03-18T05:36:12.590Z,0.10
2018-03-18T05:38:42.351Z,0.40
2018-03-18T05:41:10.599Z,0.40
2018-03-18T05:43:38.831Z,0.50
2018-03-18T05:46:07.936Z,0.40
2018-03-18T05:48:36.263Z,0.70
2018-03-18T05:51:04.524Z,0.80
2018-03-18T05:53:32.756Z,0.60
2018-03-18T05:56:01.040Z,0.80
2018-03-18T05:58:29.281Z,0.60
2018-03-18T06:00:58.400Z,0.80
2018-03-18T06:03:27.443Z,0.80
2018-03-18T06:05:56.494Z,0.50
2018-03-18T06:08:24.762Z,0.50
2018-03-18T06:10:53.038Z,0.60
2018-03-18T06:13:21.293Z,0.60
2018-03-18T06:15:50.116Z,0.60
2018-03-18T06:18:19.884Z,0.50
2018-03-18T06:20:48.154Z,0.50
2018-03-18T06:23:16.403Z,0.50
2018-03-18T06:25:44.663Z,0.60
2018-03-18T06:28:12.975Z,0.50
2018-03-18T06:30:41.201Z,0.60
2018-03-18T06:33:09.460Z,0.40
2018-03-18T06:35:38.614Z,0.40
2018-03-18T06:38:08.373Z,0.40
2018-03-18T06:40:36.805Z,0.30
2018-03-18T06:43:05.798Z,0.60
2018-03-18T06:45:35.470Z,0.40
2018-03-18T06:48:03.748Z,0.60
2018-03-18T06:50:32.167Z,0.60
2018-03-18T06:53:00.420Z,0.60
2018-03-18T06:55:29.484Z,0.60
2018-03-18T06:57:57.766Z,0.50
2018-03-18T07:00:26.054Z,0.60
2018-03-18T07:02:54.299Z,0.40
2018-03-18T07:05:22.531Z,0.50
2018-03-18T07:07:50.770Z,0.50
2018-03-18T07:10:19.036Z,0.60
2018-03-18T07:12:47.282Z,0.50
2018-03-18T07:15:15.580Z,0.60
2018-03-18T07:17:43.849Z,0.60
2018-03-18T07:20:12.942Z,0.60
2018-03-18T07:22:41.222Z,0.70
2018-03-18T07:25:09.450Z,0.80
2018-03-18T07:27:38.005Z,0.60
2018-03-18T07:30:06.432Z,0.60
2018-03-18T07:32:34.725Z,0.70
2018-03-18T07:35:03.004Z,0.60
2018-03-18T07:37:31.489Z,0.70
2018-03-18T07:39:59.754Z,0.40
2018-03-18T07:42:28.582Z,0.80
2018-03-18T07:44:56.858Z,0.60
2018-03-18T07:47:25.116Z,0.60
2018-03-18T07:49:53.410Z,0.60
2018-03-18T07:52:21.692Z,0.60
2018-03-18T07:54:49.992Z,0.50
2018-03-18T07:57:18.917Z,0.60
2018-03-18T07:59:47.142Z,0.50
2018-03-18T08:02:16.157Z,0.80
2018-03-18T08:04:44.408Z,0.70
2018-03-18T08:07:12.686Z,0.70
2018-03-18T08:09:40.929Z,0.90
2018-03-18T08:12:09.226Z,0.80
2018-03-18T08:14:37.465Z,0.80
2018-03-18T08:17:05.757Z,1.00
2018-03-18T08:19:34.129Z,0.90
2018-03-18T08:22:02.364Z,1.00
2018-03-18T08:24:30.762Z,0.80
2018-03-18T08:26:58.978Z,0.70
2018-03-18T08:29:27.221Z,1.00
2018-03-18T08:31:56.304Z,0.70
2018-03-18T08:34:24.689Z,0.70
2018-03-18T08:36:52.941Z,1.00
2018-03-18T08:39:21.432Z,1.10
2018-03-18T08:41:49.700Z,0.70
2018-03-18T08:44:17.912Z,0.70
2018-03-18T08:46:46.457Z,0.70
2018-03-18T08:49:14.738Z,0.90
2018-03-18T08:51:43.279Z,0.80
2018-03-18T08:54:12.333Z,1.00
2018-03-18T08:56:40.562Z,0.90
2018-03-18T08:59:08.810Z,0.90
2018-03-18T09:01:37.087Z,1.00
2018-03-18T09:04:06.219Z,1.20
2018-03-18T09:06:35.755Z,1.20
2018-03-18T09:09:04.167Z,1.20
2018-03-18T09:11:32.425Z,1.10
2018-03-18T09:14:01.977Z,1.00
2018-03-18T09:16:30.309Z,1.10
2018-03-18T09:19:00.247Z,0.90
2018-03-18T09:21:28.704Z,1.20
2018-03-18T09:23:56.972Z,1.20
2018-03-18T09:26:25.277Z,1.20
2018-03-18T09:28:54.443Z,1.20
2018-03-18T09:31:23.506Z,1.10
2018-03-18T09:33:51.780Z,1.20
2018-03-18T09:36:20.088Z,1.40
2018-03-18T09:38:48.348Z,1.20
2018-03-18T09:41:16.603Z,1.10
2018-03-18T09:43:44.898Z,1.20
2018-03-18T09:46:13.161Z,1.30
2018-03-18T09:48:41.454Z,1.20
2018-03-18T09:51:10.445Z,1.30
2018-03-18T09:53:38.784Z,1.20
2018-03-18T09:56:07.025Z,1.10
2018-03-18T09:58:35.300Z,1.10
2018-03-18T10:01:05.152Z,1.40
2018-03-18T10:03:33.432Z,1.00
2018-03-18T10:06:01.717Z,1.40
2018-03-18T10:08:31.493Z,1.30
2018-03-18T10:11:00.570Z,1.40
2018-03-18T10:13:28.868Z,1.40
2018-03-18T10:15:57.855Z,1.30
2018-03-18T10:18:26.090Z,1.60
2018-03-18T10:20:54.352Z,1.40
2018-03-18T10:23:22.593Z,1.50
2018-03-18T10:25:51.797Z,1.40
2018-03-18T10:28:20.057Z,1.40
2018-03-18T10:30:48.343Z,1.40
2018-03-18T10:33:16.590Z,1.40
2018-03-18T10:35:44.842Z,1.30
2018-03-18T10:38:13.093Z,1.40
2018-03-18T10:40:41.357Z,1.40
2018-03-18T10:43:10.381Z,1.40
2018-03-18T10:45:38.703Z,1.60
2018-03-18T10:48:07.698Z,1.30
2018-03-18T10:50:36.657Z,1.60
2018-03-18T10:53:04.973Z,1.50
2018-03-18T10:55:33.245Z,1.60
2018-03-18T10:58:01.513Z,1.60
2018-03-18T11:00:35.521Z,1.70
2018-03-18T11:03:03.721Z,1.90
2018-03-18T11:05:32.127Z,1.80
2018-03-18T11:08:00.382Z,1.80
2018-03-18T11:10:29.668Z,2.00
2018-03-18T11:12:57.890Z,2.00
2018-03-18T11:15:26.158Z,1.90
2018-03-18T11:17:54.480Z,2.00
2018-03-18T11:20:22.706Z,2.00
2018-03-18T11:22:53.070Z,2.00
2018-03-18T11:25:21.301Z,2.30
2018-03-18T11:27:49.559Z,2.20
2018-03-18T11:30:18.553Z,2.50
2018-03-18T11:32:47.211Z,2.40
2018-03-18T11:35:15.435Z,2.40
2018-03-18T11:37:44.566Z,2.50
2018-03-18T11:40:12.814Z,2.50
2018-03-18T11:42:41.070Z,2.40
2018-03-18T11:45:09.338Z,2.40
2018-03-18T11:47:37.613Z,2.40
2018-03-18T11:50:06.604Z,2.40
2018-03-18T11:52:35.445Z,2.40
2018-03-18T11:55:04.485Z,3.00
2018-03-18T11:57:33.508Z,2.90
2018-03-18T12:00:02.727Z,2.70
2018-03-18T12:02:30.990Z,3.10
2018-03-18T12:04:59.230Z,3.20
2018-03-18T12:07:29.230Z,3.00
2018-03-18T12:09:57.469Z,3.10
2018-03-18T12:12:25.705Z,3.10
2018-03-18T12:14:53.963Z,3.10
2018-03-18T12:17:22.405Z,3.20
2018-03-18T12:19:50.667Z,3.30
2018-03-18T12:22:18.913Z,3.40
2018-03-18T12:24:47.173Z,3.30
2018-03-18T12:27:16.247Z,3.30
2018-03-18T12:29:45.387Z,3.40
2018-03-18T12:32:13.638Z,3.30
2018-03-18T12:34:42.958Z,3.10
2018-03-18T12:37:12.812Z,3.40
2018-03-18T12:39:52.837Z,3.30
2018-03-18T12:42:33.059Z,3.10
2018-03-18T12:45:01.757Z,3.00
2018-03-18T12:47:30.047Z,3.10
2018-03-18T12:49:58.264Z,2.80
2018-03-18T12:52:26.570Z,3.10
2018-03-18T12:54:55.611Z,3.10
2018-03-18T13:00:02.594Z,2.90
2018-03-18T13:02:32.236Z,3.20
2018-03-18T13:05:00.466Z,3.30
2018-03-18T13:07:28.715Z,3.30
2018-03-18T13:09:58.637Z,3.40
2018-03-18T13:12:26.851Z,3.40
2018-03-18T13:14:55.126Z,3.60
2018-03-18T13:17:23.374Z,3.60
2018-03-18T13:19:52.504Z,3.50
2018-03-18T13:22:21.633Z,3.50
2018-03-18T13:24:50.932Z,3.60
2018-03-18T13:27:19.965Z,3.40
2018-03-18T13:29:48.190Z,3.60
2018-03-18T13:32:18.191Z,3.60
2018-03-18T13:34:46.762Z,3.60
2018-03-18T13:37:15.089Z,3.60
2018-03-18T13:39:43.464Z,3.50
2018-03-18T13:42:12.469Z,3.60
2018-03-18T13:44:40.727Z,3.60
2018-03-18T13:47:09.047Z,3.70
2018-03-18T13:49:38.946Z,3.40
2018-03-18T13:52:07.502Z,3.50
2018-03-18T13:54:35.882Z,3.60
2018-03-18T13:57:05.054Z,3.60
2018-03-18T13:59:33.423Z,3.70
2018-03-18T14:02:01.723Z,3.60
2018-03-18T14:04:29.951Z,3.40
2018-03-18T14:06:59.069Z,3.30
2018-03-18T14:09:27.356Z,3.40
2018-03-18T14:11:55.609Z,3.60
2018-03-18T14:14:23.940Z,3.60
2018-03-18T14:16:52.327Z,3.90
2018-03-18T14:19:20.707Z,3.80
2018-03-18T14:21:48.951Z,3.70
2018-03-18T14:24:17.240Z,3.80
2018-03-18T14:26:45.626Z,3.70
2018-03-18T14:29:13.841Z,3.70
2018-03-18T14:31:42.918Z,3.90
2018-03-18T14:34:16.446Z,4.00
2018-03-18T14:36:48.753Z,3.90
2018-03-18T14:39:17.911Z,4.10
2018-03-18T14:41:46.171Z,4.00
2018-03-18T14:44:15.460Z,3.80
2018-03-18T14:46:44.614Z,3.90
2018-03-18T14:49:12.850Z,3.70
2018-03-18T14:51:41.110Z,3.80
2018-03-18T14:54:09.375Z,3.90
2018-03-18T14:56:38.442Z,3.70
2018-03-18T14:59:07.641Z,3.70
2018-03-18T15:01:35.923Z,3.80
2018-03-18T15:04:04.916Z,3.60
2018-03-18T15:06:34.077Z,3.40
2018-03-18T15:09:03.245Z,3.50
2018-03-18T15:11:32.350Z,3.30
2018-03-18T15:14:01.536Z,3.60
2018-03-18T15:16:29.750Z,3.30
2018-03-18T15:18:58.003Z,3.50
2018-03-18T15:21:27.014Z,3.70
2018-03-18T15:23:55.268Z,3.80
2018-03-18T15:26:23.534Z,3.70
2018-03-18T15:28:52.581Z,3.90
2018-03-18T15:31:22.271Z,3.80
2018-03-18T15:33:51.342Z,3.60
2018-03-18T15:36:19.747Z,3.60
2018-03-18T15:38:48.147Z,3.40
2018-03-18T15:41:16.379Z,3.60
2018-03-18T15:43:45.383Z,3.70
2018-03-18T15:46:13.645Z,3.50
2018-03-18T15:48:41.878Z,3.60
2018-03-18T15:51:10.163Z,3.40
2018-03-18T15:53:39.347Z,3.40
2018-03-18T15:56:08.750Z,3.40
2018-03-18T15:58:37.081Z,3.20
2018-03-18T16:01:05.344Z,3.10
2018-03-18T16:03:34.266Z,3.20
2018-03-18T16:06:02.504Z,3.10
2018-03-18T16:08:30.742Z,3.40
2018-03-18T16:10:59.022Z,3.20
2018-03-18T16:13:27.269Z,3.20
2018-03-18T16:15:55.674Z,3.50
2018-03-18T16:18:23.902Z,3.60
2018-03-18T16:20:52.137Z,3.50
2018-03-18T16:23:25.552Z,3.50
2018-03-18T16:25:55.317Z,3.50
2018-03-18T16:28:24.573Z,3.50
2018-03-18T16:31:07.421Z,3.50
2018-03-18T16:33:36.148Z,3.50
2018-03-18T16:36:04.592Z,3.40
2018-03-18T16:38:33.681Z,3.60
2018-03-18T16:41:04.181Z,3.30
2018-03-18T16:43:32.458Z,3.60
2018-03-18T16:46:00.730Z,3.60
2018-03-18T16:48:29.422Z,3.60
2018-03-18T16:50:57.661Z,3.60
2018-03-18T16:53:25.983Z,3.60
2018-03-18T16:55:54.208Z,3.40
2018-03-18T16:58:23.688Z,3.40
2018-03-18T17:00:51.967Z,3.30
2018-03-18T17:03:20.336Z,3.60
2018-03-18T17:05:49.428Z,3.10
2018-03-18T17:08:18.191Z,3.40
2018-03-18T17:10:46.620Z,3.30
2018-03-18T17:13:14.887Z,3.20
2018-03-18T17:15:43.180Z,3.20
2018-03-18T17:18:12.296Z,3.10
2018-03-18T17:20:40.611Z,3.10
2018-03-18T17:23:08.864Z,3.20
2018-03-18T17:25:37.231Z,3.10
2018-03-18T17:28:05.499Z,2.90
2018-03-18T17:30:34.513Z,3.00
2018-03-18T17:33:02.805Z,3.30
2018-03-18T17:35:31.105Z,3.10
2018-03-18T17:37:59.361Z,3.20
2018-03-18T17:40:27.606Z,2.90
2018-03-18T17:42:57.976Z,3.10
2018-03-18T17:45:39.949Z,2.90
2018-03-18T17:48:20.134Z,3.20
2018-03-18T17:51:00.119Z,3.00
2018-03-18T17:53:40.318Z,3.20
2018-03-18T17:56:20.366Z,3.10
2018-03-18T17:58:48.648Z,2.90
2018-03-18T18:01:16.880Z,2.90
2018-03-18T18:03:45.951Z,2.90
2018-03-18T18:06:19.201Z,3.00
2018-03-18T18:08:50.582Z,2.90
2018-03-18T18:11:20.717Z,2.90
2018-03-18T18:13:48.954Z,2.90
2018-03-18T18:16:17.233Z,3.20
2018-03-18T18:18:45.467Z,3.40
2018-03-18T18:21:13.707Z,3.30
2018-03-18T18:23:42.020Z,3.30
2018-03-18T18:26:10.256Z,3.40
2018-03-18T18:28:39.294Z,3.20
2018-03-18T18:31:07.563Z,3.10
2018-03-18T18:33:35.810Z,3.20
2018-03-18T18:36:04.091Z,3.10
2018-03-18T18:38:32.341Z,2.90
2018-03-18T18:41:02.102Z,3.10
2018-03-18T18:43:30.348Z,3.20
2018-03-18T18:45:59.399Z,3.10
2018-03-18T18:48:27.640Z,3.00
2018-03-18T18:50:55.917Z,3.00
2018-03-18T18:53:24.176Z,2.70
2018-03-18T18:55:52.441Z,2.50
2018-03-18T18:58:21.157Z,2.70
2018-03-18T19:00:49.517Z,2.50
2018-03-18T19:03:17.798Z,2.80
2018-03-18T19:05:46.073Z,2.60
2018-03-18T19:08:15.131Z,2.60
2018-03-18T19:10:43.388Z,2.70
2018-03-18T19:13:12.645Z,2.70
2018-03-18T19:15:40.908Z,2.60
2018-03-18T19:18:09.162Z,2.50
2018-03-18T19:20:37.450Z,2.40
2018-03-18T19:23:07.404Z,2.70
2018-03-18T19:25:37.625Z,2.50
2018-03-18T19:28:06.458Z,2.60
2018-03-18T19:30:34.727Z,2.80
2018-03-18T19:33:02.956Z,2.60
2018-03-18T19:35:31.487Z,2.50
2018-03-18T19:37:59.748Z,2.40
2018-03-18T19:40:28.004Z,2.50
2018-03-18T19:42:57.977Z,2.40
2018-03-18T19:45:26.455Z,2.40
2018-03-18T19:47:54.681Z,2.50
2018-03-18T19:50:23.155Z,2.60
2018-03-18T19:52:51.385Z,2.50
2018-03-18T19:55:20.597Z,2.50
2018-03-18T19:57:50.358Z,2.20
2018-03-18T20:00:18.651Z,2.50
2018-03-18T20:02:47.258Z,2.20
2018-03-18T20:05:16.332Z,2.30
2018-03-18T20:07:45.411Z,2.30
2018-03-18T20:10:13.742Z,2.10
2018-03-18T20:12:42.861Z,2.10
2018-03-18T20:15:11.204Z,2.00
2018-03-18T20:17:39.422Z,2.10
2018-03-18T20:20:08.677Z,2.20
2018-03-18T20:22:39.916Z,2.10
2018-03-18T20:25:10.290Z,2.00
2018-03-18T20:27:39.387Z,2.00
2018-03-18T20:30:07.661Z,2.00
2018-03-18T20:32:35.905Z,2.20
2018-03-18T20:35:04.956Z,2.00
2018-03-18T20:37:34.015Z,2.10
2018-03-18T20:40:02.399Z,2.10
2018-03-18T20:42:30.669Z,2.20
2018-03-18T20:44:58.985Z,2.00
2018-03-18T20:47:28.036Z,2.00
2018-03-18T20:49:56.335Z,2.20
2018-03-18T20:52:24.609Z,2.00
2018-03-18T20:54:53.158Z,2.20
2018-03-18T20:57:21.400Z,2.10
2018-03-18T20:59:49.618Z,2.10
2018-03-18T21:02:17.890Z,2.00
2018-03-18T21:04:46.133Z,2.10
2018-03-18T21:07:15.750Z,2.20
2018-03-18T21:09:44.027Z,2.20
2018-03-18T21:12:13.012Z,2.20
2018-03-18T21:14:41.264Z,2.20
2018-03-18T21:17:09.510Z,2.20
2018-03-18T21:19:37.792Z,2.20
2018-03-18T21:22:06.075Z,2.50
2018-03-18T21:24:34.344Z,2.20
2018-03-18T21:27:02.619Z,2.00
2018-03-18T21:29:30.872Z,2.10
2018-03-18T21:31:59.615Z,2.40
2018-03-18T21:34:37.856Z,2.20
2018-03-18T21:37:06.117Z,2.00
2018-03-18T21:39:34.427Z,2.00
2018-03-18T21:42:02.695Z,2.40
2018-03-18T21:44:30.962Z,2.10
2018-03-18T21:46:59.222Z,2.10
2018-03-18T21:49:27.534Z,2.00
2018-03-18T21:51:55.782Z,2.20
2018-03-18T21:54:25.030Z,2.20
2018-03-18T21:56:53.294Z,2.20
2018-03-18T21:59:21.566Z,2.10
2018-03-18T22:01:50.690Z,2.50
2018-03-18T22:04:18.960Z,2.20
2018-03-18T22:06:47.999Z,2.20
2018-03-18T22:09:16.423Z,2.20
2018-03-18T22:11:44.666Z,2.50
2018-03-18T22:14:12.949Z,2.20
2018-03-18T22:16:41.192Z,2.20
2018-03-18T22:19:09.462Z,2.20
2018-03-18T22:21:37.709Z,2.20
2018-03-18T22:24:06.014Z,2.20
2018-03-18T22:26:34.324Z,2.20
2018-03-18T22:29:02.598Z,2.10
2018-03-18T22:31:32.525Z,1.90
2018-03-18T22:34:00.795Z,2.20
2018-03-18T22:36:29.084Z,2.00
2018-03-18T22:38:58.133Z,2.00
2018-03-18T22:41:26.385Z,2.20
2018-03-18T22:43:57.309Z,2.00
2018-03-18T22:46:25.574Z,2.20
2018-03-18T22:48:53.858Z,2.10
2018-03-18T22:51:22.112Z,2.10
2018-03-18T22:53:51.309Z,2.00
2018-03-18T22:56:19.551Z,2.00
2018-03-18T22:58:47.800Z,2.00
2018-03-18T23:01:16.081Z,2.10
2018-03-18T23:03:44.339Z,1.90
2018-03-18T23:06:12.638Z,1.90
2018-03-18T23:08:42.398Z,1.80
2018-03-18T23:11:11.594Z,2.00
2018-03-18T23:13:40.618Z,2.00
2018-03-18T23:16:09.081Z,1.70
2018-03-18T23:18:38.185Z,2.00
2018-03-18T23:21:06.439Z,2.00
2018-03-18T23:23:34.673Z,1.70
2018-03-18T23:26:02.967Z,1.70
2018-03-18T23:28:31.210Z,2.20
2018-03-18T23:30:59.462Z,2.20
2018-03-18T23:33:27.697Z,2.00
2018-03-18T23:35:56.072Z,2.20
2018-03-18T23:38:25.202Z,1.80
2018-03-18T23:40:53.513Z,2.00
2018-03-18T23:43:21.749Z,1.80
2018-03-18T23:45:50.004Z,2.00
2018-03-18T23:48:19.095Z,1.70
2018-03-18T23:50:48.246Z,1.80
2018-03-18T23:53:17.468Z,1.70
2018-03-18T23:55:45.779Z,1.60
2018-03-18T23:58:14.032Z,1.50
